sensor_id;sensor_type;location;lat;lon;timestamp;P1;durP1;ratioP1;P2;durP2;ratioP2
67941;SDS011;54731;42.600;23.476;2023-08-08T00:01:52;0.83;;;0.53;;
67941;SDS011;54731;42.600;23.476;2023-08-08T00:04:17;1.17;;;0.50;;
67941;SDS011;54731;42.600;23.476;2023-08-08T00:06:42;0.67;;;0.33;;
67941;SDS011;54731;42.600;23.476;2023-08-08T00:09:08;0.87;;;0.50;;
67941;SDS011;54731;42.600;23.476;2023-08-08T00:11:33;2.33;;;0.60;;
67941;SDS011;54731;42.600;23.476;2023-08-08T00:13:58;0.50;;;0.30;;
67941;SDS011;54731;42.600;23.476;2023-08-08T00:16:24;0.80;;;0.53;;
67941;SDS011;54731;42.600;23.476;2023-08-08T00:18:49;0.97;;;0.40;;
67941;SDS011;54731;42.600;23.476;2023-08-08T00:21:15;1.10;;;0.60;;
67941;SDS011;54731;42.600;23.476;2023-08-08T00:23:40;1.57;;;0.73;;
67941;SDS011;54731;42.600;23.476;2023-08-08T00:26:05;1.30;;;0.40;;
67941;SDS011;54731;42.600;23.476;2023-08-08T00:28:31;1.50;;;0.90;;
67941;SDS011;54731;42.600;23.476;2023-08-08T00:30:56;2.53;;;0.67;;
67941;SDS011;54731;42.600;23.476;2023-08-08T00:33:21;1.03;;;0.53;;
67941;SDS011;54731;42.600;23.476;2023-08-08T00:35:47;1.97;;;1.07;;
67941;SDS011;54731;42.600;23.476;2023-08-08T00:38:12;1.77;;;1.13;;
67941;SDS011;54731;42.600;23.476;2023-08-08T00:40:37;1.97;;;0.97;;
67941;SDS011;54731;42.600;23.476;2023-08-08T00:43:02;1.73;;;1.00;;
67941;SDS011;54731;42.600;23.476;2023-08-08T00:45:28;1.52;;;1.13;;
67941;SDS011;54731;42.600;23.476;2023-08-08T00:47:53;1.47;;;0.70;;
67941;SDS011;54731;42.600;23.476;2023-08-08T00:50:19;1.40;;;1.00;;
67941;SDS011;54731;42.600;23.476;2023-08-08T00:52:45;0.95;;;0.68;;
67941;SDS011;54731;42.600;23.476;2023-08-08T00:55:11;0.97;;;0.60;;
67941;SDS011;54731;42.600;23.476;2023-08-08T00:57:37;1.20;;;0.60;;
67941;SDS011;54731;42.600;23.476;2023-08-08T01:00:02;1.88;;;0.65;;
67941;SDS011;54731;42.600;23.476;2023-08-08T01:02:28;1.92;;;0.70;;
67941;SDS011;54731;42.600;23.476;2023-08-08T01:04:54;1.40;;;0.57;;
67941;SDS011;54731;42.600;23.476;2023-08-08T01:07:28;4.43;;;0.90;;
67941;SDS011;54731;42.600;23.476;2023-08-08T01:12:45;0.70;;;0.60;;
67941;SDS011;54731;42.600;23.476;2023-08-08T01:15:13;1.45;;;1.05;;
67941;SDS011;54731;42.600;23.476;2023-08-08T01:17:39;1.35;;;0.85;;
67941;SDS011;54731;42.600;23.476;2023-08-08T01:20:06;1.05;;;0.90;;
67941;SDS011;54731;42.600;23.476;2023-08-08T01:22:36;1.10;;;0.85;;
67941;SDS011;54731;42.600;23.476;2023-08-08T01:25:05;2.03;;;0.90;;
67941;SDS011;54731;42.600;23.476;2023-08-08T01:27:32;2.17;;;0.98;;
67941;SDS011;54731;42.600;23.476;2023-08-08T01:29:58;1.33;;;0.87;;
67941;SDS011;54731;42.600;23.476;2023-08-08T01:32:23;1.37;;;0.90;;
67941;SDS011;54731;42.600;23.476;2023-08-08T01:34:49;1.63;;;0.93;;
67941;SDS011;54731;42.600;23.476;2023-08-08T01:37:17;1.30;;;0.93;;
67941;SDS011;54731;42.600;23.476;2023-08-08T01:39:45;1.73;;;0.90;;
67941;SDS011;54731;42.600;23.476;2023-08-08T01:42:11;3.17;;;1.35;;
67941;SDS011;54731;42.600;23.476;2023-08-08T01:44:39;1.13;;;0.80;;
67941;SDS011;54731;42.600;23.476;2023-08-08T01:47:06;1.20;;;0.90;;
67941;SDS011;54731;42.600;23.476;2023-08-08T01:49:32;1.65;;;0.90;;
67941;SDS011;54731;42.600;23.476;2023-08-08T01:51:58;1.10;;;0.97;;
67941;SDS011;54731;42.600;23.476;2023-08-08T01:54:23;1.57;;;0.80;;
67941;SDS011;54731;42.600;23.476;2023-08-08T01:56:48;2.77;;;1.20;;
67941;SDS011;54731;42.600;23.476;2023-08-08T01:59:14;1.10;;;0.93;;
67941;SDS011;54731;42.600;23.476;2023-08-08T02:01:39;1.50;;;1.00;;
67941;SDS011;54731;42.600;23.476;2023-08-08T02:04:04;1.50;;;0.90;;
67941;SDS011;54731;42.600;23.476;2023-08-08T02:06:30;1.40;;;0.88;;
67941;SDS011;54731;42.600;23.476;2023-08-08T02:08:55;1.87;;;1.07;;
67941;SDS011;54731;42.600;23.476;2023-08-08T02:11:20;1.60;;;1.33;;
67941;SDS011;54731;42.600;23.476;2023-08-08T02:13:46;1.50;;;1.20;;
67941;SDS011;54731;42.600;23.476;2023-08-08T02:16:11;1.90;;;1.07;;
67941;SDS011;54731;42.600;23.476;2023-08-08T02:18:36;2.70;;;1.30;;
67941;SDS011;54731;42.600;23.476;2023-08-08T02:21:01;1.40;;;1.10;;
67941;SDS011;54731;42.600;23.476;2023-08-08T02:23:27;1.80;;;1.10;;
67941;SDS011;54731;42.600;23.476;2023-08-08T02:25:52;3.10;;;1.40;;
67941;SDS011;54731;42.600;23.476;2023-08-08T02:28:17;5.00;;;1.10;;
67941;SDS011;54731;42.600;23.476;2023-08-08T02:30:43;2.90;;;1.00;;
67941;SDS011;54731;42.600;23.476;2023-08-08T02:33:09;2.55;;;1.52;;
67941;SDS011;54731;42.600;23.476;2023-08-08T02:35:36;2.90;;;1.23;;
67941;SDS011;54731;42.600;23.476;2023-08-08T02:38:01;1.87;;;1.50;;
67941;SDS011;54731;42.600;23.476;2023-08-08T02:40:26;2.77;;;1.27;;
67941;SDS011;54731;42.600;23.476;2023-08-08T02:42:52;2.20;;;1.70;;
67941;SDS011;54731;42.600;23.476;2023-08-08T02:45:17;2.43;;;1.17;;
67941;SDS011;54731;42.600;23.476;2023-08-08T02:47:42;2.23;;;1.40;;
67941;SDS011;54731;42.600;23.476;2023-08-08T02:50:08;1.70;;;1.10;;
67941;SDS011;54731;42.600;23.476;2023-08-08T02:52:33;2.33;;;1.40;;
67941;SDS011;54731;42.600;23.476;2023-08-08T02:54:59;1.80;;;1.40;;
67941;SDS011;54731;42.600;23.476;2023-08-08T02:57:24;1.95;;;1.60;;
67941;SDS011;54731;42.600;23.476;2023-08-08T02:59:50;2.47;;;1.50;;
67941;SDS011;54731;42.600;23.476;2023-08-08T03:02:15;2.40;;;1.47;;
67941;SDS011;54731;42.600;23.476;2023-08-08T03:04:40;2.00;;;1.50;;
67941;SDS011;54731;42.600;23.476;2023-08-08T03:07:05;2.90;;;1.83;;
67941;SDS011;54731;42.600;23.476;2023-08-08T03:09:31;2.50;;;2.00;;
67941;SDS011;54731;42.600;23.476;2023-08-08T03:11:56;2.10;;;1.90;;
67941;SDS011;54731;42.600;23.476;2023-08-08T03:14:21;3.20;;;2.00;;
67941;SDS011;54731;42.600;23.476;2023-08-08T03:16:47;2.57;;;1.90;;
67941;SDS011;54731;42.600;23.476;2023-08-08T03:19:12;2.60;;;2.00;;
67941;SDS011;54731;42.600;23.476;2023-08-08T03:21:37;2.47;;;2.10;;
67941;SDS011;54731;42.600;23.476;2023-08-08T03:24:03;3.03;;;1.93;;
67941;SDS011;54731;42.600;23.476;2023-08-08T03:26:28;3.53;;;2.27;;
67941;SDS011;54731;42.600;23.476;2023-08-08T03:28:53;3.88;;;2.00;;
67941;SDS011;54731;42.600;23.476;2023-08-08T03:31:19;2.67;;;2.17;;
67941;SDS011;54731;42.600;23.476;2023-08-08T03:33:45;2.50;;;2.30;;
67941;SDS011;54731;42.600;23.476;2023-08-08T03:36:10;2.70;;;2.40;;
67941;SDS011;54731;42.600;23.476;2023-08-08T03:38:36;2.30;;;2.00;;
67941;SDS011;54731;42.600;23.476;2023-08-08T03:41:01;2.63;;;2.17;;
67941;SDS011;54731;42.600;23.476;2023-08-08T03:43:26;3.07;;;2.37;;
67941;SDS011;54731;42.600;23.476;2023-08-08T03:45:52;4.67;;;2.73;;
67941;SDS011;54731;42.600;23.476;2023-08-08T03:48:17;2.80;;;2.07;;
67941;SDS011;54731;42.600;23.476;2023-08-08T03:50:42;4.77;;;2.50;;
67941;SDS011;54731;42.600;23.476;2023-08-08T03:53:08;4.57;;;2.70;;
67941;SDS011;54731;42.600;23.476;2023-08-08T03:55:33;2.80;;;2.25;;
67941;SDS011;54731;42.600;23.476;2023-08-08T03:57:58;3.17;;;2.45;;
67941;SDS011;54731;42.600;23.476;2023-08-08T04:00:24;2.67;;;2.47;;
67941;SDS011;54731;42.600;23.476;2023-08-08T04:02:49;3.50;;;2.57;;
67941;SDS011;54731;42.600;23.476;2023-08-08T04:05:14;4.30;;;2.80;;
67941;SDS011;54731;42.600;23.476;2023-08-08T04:07:40;4.07;;;2.33;;
67941;SDS011;54731;42.600;23.476;2023-08-08T04:10:05;4.30;;;2.60;;
67941;SDS011;54731;42.600;23.476;2023-08-08T04:12:31;5.65;;;2.45;;
67941;SDS011;54731;42.600;23.476;2023-08-08T04:14:56;2.53;;;2.03;;
67941;SDS011;54731;42.600;23.476;2023-08-08T04:17:21;3.13;;;2.80;;
67941;SDS011;54731;42.600;23.476;2023-08-08T04:19:47;3.13;;;2.50;;
67941;SDS011;54731;42.600;23.476;2023-08-08T04:22:12;2.77;;;2.30;;
67941;SDS011;54731;42.600;23.476;2023-08-08T04:24:37;4.37;;;2.40;;
67941;SDS011;54731;42.600;23.476;2023-08-08T04:27:03;3.20;;;2.90;;
67941;SDS011;54731;42.600;23.476;2023-08-08T04:29:28;3.40;;;3.10;;
67941;SDS011;54731;42.600;23.476;2023-08-08T04:31:54;4.70;;;2.70;;
67941;SDS011;54731;42.600;23.476;2023-08-08T04:34:19;4.07;;;2.50;;
67941;SDS011;54731;42.600;23.476;2023-08-08T04:36:44;3.20;;;2.90;;
67941;SDS011;54731;42.600;23.476;2023-08-08T04:39:10;3.67;;;2.50;;
67941;SDS011;54731;42.600;23.476;2023-08-08T04:41:35;5.30;;;2.90;;
67941;SDS011;54731;42.600;23.476;2023-08-08T04:44:00;3.08;;;2.67;;
67941;SDS011;54731;42.600;23.476;2023-08-08T04:46:25;3.20;;;2.90;;
67941;SDS011;54731;42.600;23.476;2023-08-08T04:48:51;4.47;;;2.97;;
67941;SDS011;54731;42.600;23.476;2023-08-08T04:51:16;3.33;;;3.03;;
67941;SDS011;54731;42.600;23.476;2023-08-08T04:53:41;4.03;;;2.80;;
67941;SDS011;54731;42.600;23.476;2023-08-08T04:56:07;4.03;;;2.80;;
67941;SDS011;54731;42.600;23.476;2023-08-08T04:58:32;4.73;;;2.93;;
67941;SDS011;54731;42.600;23.476;2023-08-08T05:00:57;4.80;;;2.67;;
67941;SDS011;54731;42.600;23.476;2023-08-08T05:03:22;3.63;;;3.00;;
67941;SDS011;54731;42.600;23.476;2023-08-08T05:05:48;4.00;;;2.90;;
67941;SDS011;54731;42.600;23.476;2023-08-08T05:08:13;3.65;;;3.03;;
67941;SDS011;54731;42.600;23.476;2023-08-08T05:10:39;2.93;;;2.60;;
67941;SDS011;54731;42.600;23.476;2023-08-08T05:13:04;4.87;;;2.60;;
67941;SDS011;54731;42.600;23.476;2023-08-08T05:15:29;2.47;;;2.23;;
67941;SDS011;54731;42.600;23.476;2023-08-08T05:17:55;2.50;;;2.30;;
67941;SDS011;54731;42.600;23.476;2023-08-08T05:20:20;3.55;;;1.70;;
67941;SDS011;54731;42.600;23.476;2023-08-08T05:22:46;4.88;;;2.38;;
67941;SDS011;54731;42.600;23.476;2023-08-08T05:25:11;3.35;;;2.67;;
67941;SDS011;54731;42.600;23.476;2023-08-08T05:27:37;2.92;;;2.67;;
67941;SDS011;54731;42.600;23.476;2023-08-08T05:30:02;3.00;;;2.70;;
67941;SDS011;54731;42.600;23.476;2023-08-08T05:32:28;2.90;;;2.63;;
67941;SDS011;54731;42.600;23.476;2023-08-08T05:34:54;3.63;;;3.03;;
67941;SDS011;54731;42.600;23.476;2023-08-08T05:37:19;3.23;;;2.87;;
67941;SDS011;54731;42.600;23.476;2023-08-08T05:39:44;3.20;;;2.90;;
67941;SDS011;54731;42.600;23.476;2023-08-08T05:42:10;4.83;;;2.67;;
67941;SDS011;54731;42.600;23.476;2023-08-08T05:44:35;3.37;;;2.87;;
67941;SDS011;54731;42.600;23.476;2023-08-08T05:47:00;4.37;;;3.33;;
67941;SDS011;54731;42.600;23.476;2023-08-08T05:49:26;3.07;;;2.80;;
67941;SDS011;54731;42.600;23.476;2023-08-08T05:51:51;4.20;;;3.33;;
67941;SDS011;54731;42.600;23.476;2023-08-08T05:54:16;3.00;;;2.70;;
67941;SDS011;54731;42.600;23.476;2023-08-08T05:56:41;2.75;;;2.53;;
67941;SDS011;54731;42.600;23.476;2023-08-08T05:59:07;2.57;;;2.37;;
67941;SDS011;54731;42.600;23.476;2023-08-08T06:01:32;3.10;;;2.37;;
67941;SDS011;54731;42.600;23.476;2023-08-08T06:03:57;2.97;;;2.57;;
67941;SDS011;54731;42.600;23.476;2023-08-08T06:06:23;2.73;;;2.53;;
67941;SDS011;54731;42.600;23.476;2023-08-08T06:08:48;3.00;;;2.70;;
67941;SDS011;54731;42.600;23.476;2023-08-08T06:11:13;3.17;;;2.63;;
67941;SDS011;54731;42.600;23.476;2023-08-08T06:13:39;2.87;;;2.20;;
67941;SDS011;54731;42.600;23.476;2023-08-08T06:16:04;3.53;;;2.50;;
67941;SDS011;54731;42.600;23.476;2023-08-08T06:18:29;2.47;;;2.20;;
67941;SDS011;54731;42.600;23.476;2023-08-08T06:20:54;2.92;;;2.20;;
67941;SDS011;54731;42.600;23.476;2023-08-08T06:23:20;4.83;;;2.60;;
67941;SDS011;54731;42.600;23.476;2023-08-08T06:25:45;3.93;;;2.87;;
67941;SDS011;54731;42.600;23.476;2023-08-08T06:28:10;2.37;;;2.17;;
67941;SDS011;54731;42.600;23.476;2023-08-08T06:30:36;4.37;;;3.10;;
67941;SDS011;54731;42.600;23.476;2023-08-08T06:33:01;4.10;;;2.83;;
67941;SDS011;54731;42.600;23.476;2023-08-08T06:35:26;3.20;;;2.70;;
67941;SDS011;54731;42.600;23.476;2023-08-08T06:37:51;5.50;;;2.90;;
67941;SDS011;54731;42.600;23.476;2023-08-08T06:40:17;3.10;;;2.80;;
67941;SDS011;54731;42.600;23.476;2023-08-08T06:42:42;3.95;;;2.97;;
67941;SDS011;54731;42.600;23.476;2023-08-08T06:45:07;4.13;;;2.83;;
67941;SDS011;54731;42.600;23.476;2023-08-08T06:47:33;6.97;;;2.73;;
67941;SDS011;54731;42.600;23.476;2023-08-08T06:49:58;5.00;;;2.50;;
67941;SDS011;54731;42.600;23.476;2023-08-08T06:52:24;3.53;;;2.03;;
67941;SDS011;54731;42.600;23.476;2023-08-08T06:54:49;3.17;;;1.90;;
67941;SDS011;54731;42.600;23.476;2023-08-08T06:57:14;1.75;;;1.50;;
67941;SDS011;54731;42.600;23.476;2023-08-08T06:59:39;2.20;;;2.00;;
67941;SDS011;54731;42.600;23.476;2023-08-08T07:02:05;2.53;;;1.77;;
67941;SDS011;54731;42.600;23.476;2023-08-08T07:04:30;1.90;;;1.80;;
67941;SDS011;54731;42.600;23.476;2023-08-08T07:06:55;3.07;;;1.87;;
67941;SDS011;54731;42.600;23.476;2023-08-08T07:09:21;2.93;;;2.30;;
67941;SDS011;54731;42.600;23.476;2023-08-08T07:11:46;3.03;;;2.13;;
67941;SDS011;54731;42.600;23.476;2023-08-08T07:14:11;3.47;;;2.03;;
67941;SDS011;54731;42.600;23.476;2023-08-08T07:16:37;2.63;;;2.10;;
67941;SDS011;54731;42.600;23.476;2023-08-08T07:19:02;2.45;;;2.25;;
67941;SDS011;54731;42.600;23.476;2023-08-08T07:21:27;2.40;;;1.63;;
67941;SDS011;54731;42.600;23.476;2023-08-08T07:23:53;1.70;;;1.30;;
67941;SDS011;54731;42.600;23.476;2023-08-08T07:26:19;2.53;;;1.70;;
67941;SDS011;54731;42.600;23.476;2023-08-08T07:28:44;1.85;;;1.50;;
67941;SDS011;54731;42.600;23.476;2023-08-08T07:31:09;1.83;;;1.10;;
67941;SDS011;54731;42.600;23.476;2023-08-08T07:33:35;2.30;;;1.30;;
67941;SDS011;54731;42.600;23.476;2023-08-08T07:36:00;1.20;;;1.10;;
67941;SDS011;54731;42.600;23.476;2023-08-08T07:38:25;3.10;;;1.60;;
67941;SDS011;54731;42.600;23.476;2023-08-08T07:40:51;2.30;;;1.60;;
67941;SDS011;54731;42.600;23.476;2023-08-08T07:43:16;3.00;;;1.80;;
67941;SDS011;54731;42.600;23.476;2023-08-08T07:45:41;3.40;;;1.33;;
67941;SDS011;54731;42.600;23.476;2023-08-08T07:48:07;1.48;;;1.30;;
67941;SDS011;54731;42.600;23.476;2023-08-08T07:50:32;2.80;;;1.33;;
67941;SDS011;54731;42.600;23.476;2023-08-08T07:52:57;1.70;;;1.30;;
67941;SDS011;54731;42.600;23.476;2023-08-08T07:55:23;1.33;;;0.90;;
67941;SDS011;54731;42.600;23.476;2023-08-08T07:57:48;2.87;;;0.97;;
67941;SDS011;54731;42.600;23.476;2023-08-08T08:00:14;1.73;;;1.20;;
67941;SDS011;54731;42.600;23.476;2023-08-08T08:02:42;1.83;;;1.20;;
67941;SDS011;54731;42.600;23.476;2023-08-08T08:05:08;1.10;;;0.88;;
67941;SDS011;54731;42.600;23.476;2023-08-08T08:07:34;3.63;;;1.13;;
67941;SDS011;54731;42.600;23.476;2023-08-08T08:10:00;1.33;;;1.00;;
67941;SDS011;54731;42.600;23.476;2023-08-08T08:12:26;2.38;;;1.23;;
67941;SDS011;54731;42.600;23.476;2023-08-08T08:14:52;1.10;;;0.70;;
67941;SDS011;54731;42.600;23.476;2023-08-08T08:17:17;1.30;;;0.77;;
67941;SDS011;54731;42.600;23.476;2023-08-08T08:19:42;5.33;;;1.00;;
67941;SDS011;54731;42.600;23.476;2023-08-08T08:22:11;1.30;;;1.00;;
67941;SDS011;54731;42.600;23.476;2023-08-08T08:24:36;4.90;;;0.80;;
67941;SDS011;54731;42.600;23.476;2023-08-08T08:27:01;3.07;;;0.80;;
67941;SDS011;54731;42.600;23.476;2023-08-08T08:29:27;1.30;;;0.90;;
67941;SDS011;54731;42.600;23.476;2023-08-08T08:31:52;3.50;;;1.17;;
67941;SDS011;54731;42.600;23.476;2023-08-08T08:34:17;1.50;;;0.90;;
67941;SDS011;54731;42.600;23.476;2023-08-08T08:36:43;1.17;;;0.83;;
67941;SDS011;54731;42.600;23.476;2023-08-08T08:39:11;1.13;;;0.90;;
67941;SDS011;54731;42.600;23.476;2023-08-08T08:41:36;2.88;;;0.70;;
67941;SDS011;54731;42.600;23.476;2023-08-08T08:44:02;1.30;;;1.00;;
67941;SDS011;54731;42.600;23.476;2023-08-08T08:46:28;1.50;;;0.70;;
67941;SDS011;54731;42.600;23.476;2023-08-08T08:48:55;3.13;;;1.08;;
67941;SDS011;54731;42.600;23.476;2023-08-08T08:51:23;3.17;;;1.00;;
67941;SDS011;54731;42.600;23.476;2023-08-08T08:53:49;1.08;;;0.82;;
67941;SDS011;54731;42.600;23.476;2023-08-08T08:56:15;1.50;;;0.97;;
67941;SDS011;54731;42.600;23.476;2023-08-08T08:58:41;2.58;;;1.27;;
67941;SDS011;54731;42.600;23.476;2023-08-08T09:01:07;1.90;;;1.20;;
67941;SDS011;54731;42.600;23.476;2023-08-08T09:03:33;1.88;;;1.00;;
67941;SDS011;54731;42.600;23.476;2023-08-08T09:05:59;2.90;;;1.10;;
67941;SDS011;54731;42.600;23.476;2023-08-08T09:08:24;2.00;;;1.42;;
67941;SDS011;54731;42.600;23.476;2023-08-08T09:10:50;2.20;;;1.50;;
67941;SDS011;54731;42.600;23.476;2023-08-08T09:13:15;3.77;;;1.33;;
67941;SDS011;54731;42.600;23.476;2023-08-08T09:15:40;3.53;;;1.37;;
67941;SDS011;54731;42.600;23.476;2023-08-08T09:18:06;3.20;;;1.20;;
67941;SDS011;54731;42.600;23.476;2023-08-08T09:20:32;2.15;;;1.20;;
67941;SDS011;54731;42.600;23.476;2023-08-08T09:22:57;2.90;;;1.60;;
67941;SDS011;54731;42.600;23.476;2023-08-08T09:25:23;2.37;;;1.70;;
67941;SDS011;54731;42.600;23.476;2023-08-08T09:27:50;4.90;;;1.85;;
67941;SDS011;54731;42.600;23.476;2023-08-08T09:30:16;4.70;;;1.40;;
67941;SDS011;54731;42.600;23.476;2023-08-08T09:32:43;4.70;;;1.47;;
67941;SDS011;54731;42.600;23.476;2023-08-08T09:35:09;2.05;;;1.40;;
67941;SDS011;54731;42.600;23.476;2023-08-08T09:37:34;1.88;;;1.25;;
67941;SDS011;54731;42.600;23.476;2023-08-08T09:40:00;2.83;;;1.00;;
67941;SDS011;54731;42.600;23.476;2023-08-08T09:42:27;2.75;;;1.10;;
67941;SDS011;54731;42.600;23.476;2023-08-08T09:44:53;1.40;;;1.25;;
67941;SDS011;54731;42.600;23.476;2023-08-08T09:47:21;1.92;;;1.13;;
67941;SDS011;54731;42.600;23.476;2023-08-08T09:49:46;1.30;;;0.85;;
67941;SDS011;54731;42.600;23.476;2023-08-08T09:52:11;1.80;;;1.47;;
67941;SDS011;54731;42.600;23.476;2023-08-08T09:54:38;1.17;;;0.90;;
67941;SDS011;54731;42.600;23.476;2023-08-08T09:57:05;1.40;;;1.23;;
67941;SDS011;54731;42.600;23.476;2023-08-08T09:59:31;2.97;;;1.25;;
67941;SDS011;54731;42.600;23.476;2023-08-08T10:01:57;1.40;;;1.08;;
67941;SDS011;54731;42.600;23.476;2023-08-08T10:04:23;1.58;;;1.17;;
67941;SDS011;54731;42.600;23.476;2023-08-08T10:06:49;1.43;;;1.33;;
67941;SDS011;54731;42.600;23.476;2023-08-08T10:09:14;1.37;;;1.27;;
67941;SDS011;54731;42.600;23.476;2023-08-08T10:11:40;1.77;;;0.93;;
67941;SDS011;54731;42.600;23.476;2023-08-08T10:14:08;1.30;;;1.00;;
67941;SDS011;54731;42.600;23.476;2023-08-08T10:16:34;1.20;;;1.10;;
67941;SDS011;54731;42.600;23.476;2023-08-08T10:19:00;1.27;;;1.00;;
67941;SDS011;54731;42.600;23.476;2023-08-08T10:21:27;0.87;;;0.80;;
67941;SDS011;54731;42.600;23.476;2023-08-08T10:24:03;1.83;;;1.10;;
67941;SDS011;54731;42.600;23.476;2023-08-08T10:26:33;1.52;;;1.20;;
67941;SDS011;54731;42.600;23.476;2023-08-08T10:28:59;6.53;;;1.40;;
67941;SDS011;54731;42.600;23.476;2023-08-08T10:31:25;1.85;;;1.50;;
67941;SDS011;54731;42.600;23.476;2023-08-08T10:34:00;1.13;;;1.02;;
67941;SDS011;54731;42.600;23.476;2023-08-08T10:36:48;2.53;;;1.20;;
67941;SDS011;54731;42.600;23.476;2023-08-08T10:39:15;1.33;;;1.20;;
67941;SDS011;54731;42.600;23.476;2023-08-08T10:41:48;1.45;;;1.35;;
67941;SDS011;54731;42.600;23.476;2023-08-08T10:44:22;1.17;;;1.08;;
67941;SDS011;54731;42.600;23.476;2023-08-08T10:46:48;2.05;;;1.10;;
67941;SDS011;54731;42.600;23.476;2023-08-08T10:49:13;2.33;;;1.30;;
67941;SDS011;54731;42.600;23.476;2023-08-08T10:51:40;1.15;;;1.05;;
67941;SDS011;54731;42.600;23.476;2023-08-08T10:54:06;1.40;;;1.08;;
67941;SDS011;54731;42.600;23.476;2023-08-08T10:56:37;1.83;;;1.52;;
67941;SDS011;54731;42.600;23.476;2023-08-08T10:59:11;3.83;;;1.50;;
67941;SDS011;54731;42.600;23.476;2023-08-08T11:01:39;2.03;;;1.10;;
67941;SDS011;54731;42.600;23.476;2023-08-08T11:04:05;3.25;;;1.40;;
67941;SDS011;54731;42.600;23.476;2023-08-08T11:06:30;1.90;;;1.50;;
67941;SDS011;54731;42.600;23.476;2023-08-08T11:08:57;1.30;;;1.20;;
67941;SDS011;54731;42.600;23.476;2023-08-08T11:11:23;1.70;;;1.43;;
67941;SDS011;54731;42.600;23.476;2023-08-08T11:13:50;1.83;;;1.33;;
67941;SDS011;54731;42.600;23.476;2023-08-08T11:16:16;2.85;;;1.30;;
67941;SDS011;54731;42.600;23.476;2023-08-08T11:18:42;1.57;;;1.37;;
67941;SDS011;54731;42.600;23.476;2023-08-08T11:21:11;1.48;;;1.38;;
67941;SDS011;54731;42.600;23.476;2023-08-08T11:23:37;1.98;;;1.40;;
67941;SDS011;54731;42.600;23.476;2023-08-08T11:26:02;2.40;;;1.63;;
67941;SDS011;54731;42.600;23.476;2023-08-08T11:28:28;2.10;;;1.40;;
67941;SDS011;54731;42.600;23.476;2023-08-08T11:30:53;2.50;;;1.20;;
67941;SDS011;54731;42.600;23.476;2023-08-08T11:33:18;1.20;;;1.10;;
67941;SDS011;54731;42.600;23.476;2023-08-08T11:35:44;1.53;;;1.00;;
67941;SDS011;54731;42.600;23.476;2023-08-08T11:38:10;3.55;;;1.65;;
67941;SDS011;54731;42.600;23.476;2023-08-08T11:40:35;1.30;;;1.20;;
67941;SDS011;54731;42.600;23.476;2023-08-08T11:43:01;1.43;;;1.30;;
67941;SDS011;54731;42.600;23.476;2023-08-08T11:45:26;2.28;;;1.17;;
67941;SDS011;54731;42.600;23.476;2023-08-08T11:47:53;1.63;;;1.33;;
67941;SDS011;54731;42.600;23.476;2023-08-08T11:50:20;4.77;;;1.33;;
67941;SDS011;54731;42.600;23.476;2023-08-08T11:52:46;1.40;;;1.30;;
67941;SDS011;54731;42.600;23.476;2023-08-08T11:55:12;1.43;;;1.17;;
67941;SDS011;54731;42.600;23.476;2023-08-08T11:57:38;4.95;;;1.40;;
67941;SDS011;54731;42.600;23.476;2023-08-08T12:00:07;1.77;;;1.33;;
67941;SDS011;54731;42.600;23.476;2023-08-08T12:02:37;2.35;;;1.20;;
67941;SDS011;54731;42.600;23.476;2023-08-08T12:05:06;4.20;;;1.37;;
67941;SDS011;54731;42.600;23.476;2023-08-08T12:07:32;1.42;;;1.25;;
67941;SDS011;54731;42.600;23.476;2023-08-08T12:09:58;2.90;;;1.25;;
67941;SDS011;54731;42.600;23.476;2023-08-08T12:12:23;1.80;;;1.43;;
67941;SDS011;54731;42.600;23.476;2023-08-08T12:14:51;2.03;;;1.52;;
67941;SDS011;54731;42.600;23.476;2023-08-08T12:17:18;1.52;;;1.42;;
67941;SDS011;54731;42.600;23.476;2023-08-08T12:19:45;2.08;;;1.73;;
67941;SDS011;54731;42.600;23.476;2023-08-08T12:22:11;2.57;;;1.10;;
67941;SDS011;54731;42.600;23.476;2023-08-08T12:24:36;1.80;;;1.20;;
67941;SDS011;54731;42.600;23.476;2023-08-08T12:27:01;2.20;;;1.30;;
67941;SDS011;54731;42.600;23.476;2023-08-08T12:29:26;1.77;;;1.23;;
67941;SDS011;54731;42.600;23.476;2023-08-08T12:31:52;2.50;;;1.37;;
67941;SDS011;54731;42.600;23.476;2023-08-08T12:34:20;5.07;;;1.47;;
67941;SDS011;54731;42.600;23.476;2023-08-08T12:36:45;1.40;;;1.27;;
67941;SDS011;54731;42.600;23.476;2023-08-08T12:39:10;2.90;;;1.60;;
67941;SDS011;54731;42.600;23.476;2023-08-08T12:41:36;1.73;;;1.40;;
67941;SDS011;54731;42.600;23.476;2023-08-08T12:44:01;2.70;;;1.50;;
67941;SDS011;54731;42.600;23.476;2023-08-08T12:46:26;2.07;;;1.27;;
67941;SDS011;54731;42.600;23.476;2023-08-08T12:48:52;3.28;;;1.50;;
67941;SDS011;54731;42.600;23.476;2023-08-08T12:51:17;1.87;;;1.40;;
67941;SDS011;54731;42.600;23.476;2023-08-08T12:53:42;2.43;;;1.57;;
67941;SDS011;54731;42.600;23.476;2023-08-08T12:56:08;5.17;;;2.00;;
67941;SDS011;54731;42.600;23.476;2023-08-08T12:58:33;1.73;;;1.20;;
67941;SDS011;54731;42.600;23.476;2023-08-08T13:00:58;1.43;;;1.30;;
67941;SDS011;54731;42.600;23.476;2023-08-08T13:03:24;1.30;;;1.20;;
67941;SDS011;54731;42.600;23.476;2023-08-08T13:05:49;1.17;;;1.07;;
67941;SDS011;54731;42.600;23.476;2023-08-08T13:08:14;1.50;;;1.27;;
67941;SDS011;54731;42.600;23.476;2023-08-08T13:10:40;2.35;;;1.42;;
67941;SDS011;54731;42.600;23.476;2023-08-08T13:13:05;1.20;;;1.10;;
67941;SDS011;54731;42.600;23.476;2023-08-08T13:15:31;2.00;;;1.50;;
67941;SDS011;54731;42.600;23.476;2023-08-08T13:17:56;1.37;;;1.27;;
67941;SDS011;54731;42.600;23.476;2023-08-08T13:20:21;1.42;;;1.33;;
67941;SDS011;54731;42.600;23.476;2023-08-08T13:22:47;1.20;;;1.10;;
67941;SDS011;54731;42.600;23.476;2023-08-08T13:25:12;4.80;;;1.67;;
67941;SDS011;54731;42.600;23.476;2023-08-08T13:27:37;1.57;;;0.90;;
67941;SDS011;54731;42.600;23.476;2023-08-08T13:30:03;1.20;;;1.10;;
67941;SDS011;54731;42.600;23.476;2023-08-08T13:32:30;1.77;;;0.98;;
67941;SDS011;54731;42.600;23.476;2023-08-08T13:34:55;1.37;;;1.27;;
67941;SDS011;54731;42.600;23.476;2023-08-08T13:37:20;2.77;;;1.10;;
67941;SDS011;54731;42.600;23.476;2023-08-08T13:39:46;3.93;;;1.33;;
67941;SDS011;54731;42.600;23.476;2023-08-08T13:42:11;2.87;;;1.17;;
67941;SDS011;54731;42.600;23.476;2023-08-08T13:44:36;2.50;;;1.30;;
67941;SDS011;54731;42.600;23.476;2023-08-08T13:47:01;1.13;;;1.03;;
67941;SDS011;54731;42.600;23.476;2023-08-08T13:49:27;1.60;;;1.30;;
67941;SDS011;54731;42.600;23.476;2023-08-08T13:51:53;2.80;;;1.23;;
67941;SDS011;54731;42.600;23.476;2023-08-08T13:54:18;1.65;;;1.50;;
67941;SDS011;54731;42.600;23.476;2023-08-08T13:56:44;1.57;;;1.07;;
67941;SDS011;54731;42.600;23.476;2023-08-08T13:59:09;1.40;;;1.30;;
67941;SDS011;54731;42.600;23.476;2023-08-08T14:01:34;2.10;;;1.50;;
67941;SDS011;54731;42.600;23.476;2023-08-08T14:04:00;1.83;;;1.50;;
67941;SDS011;54731;42.600;23.476;2023-08-08T14:06:25;3.63;;;1.40;;
67941;SDS011;54731;42.600;23.476;2023-08-08T14:08:50;1.93;;;1.37;;
67941;SDS011;54731;42.600;23.476;2023-08-08T14:11:16;1.85;;;1.55;;
67941;SDS011;54731;42.600;23.476;2023-08-08T14:13:41;1.60;;;1.50;;
67941;SDS011;54731;42.600;23.476;2023-08-08T14:16:06;1.70;;;1.43;;
67941;SDS011;54731;42.600;23.476;2023-08-08T14:18:31;2.63;;;1.80;;
67941;SDS011;54731;42.600;23.476;2023-08-08T14:20:57;2.30;;;1.83;;
67941;SDS011;54731;42.600;23.476;2023-08-08T14:23:22;3.67;;;2.50;;
67941;SDS011;54731;42.600;23.476;2023-08-08T14:25:47;3.10;;;2.63;;
67941;SDS011;54731;42.600;23.476;2023-08-08T14:28:13;1.83;;;1.67;;